2014 April Fools' Run (Re-scheduled)

back to results

Apr. 19, 2014

2014 April Fools' Run (Re-scheduled)
Clarkston, MI
Provided by Race Services


APRIL FOOL'S RUN
Saturday, April 19, 2014
Clarkston, Michigan
Results by Race Services Company

10k Run Results

Male Overall
Place Oallplace Name No. Age City Time Pace
1 1 Alex Williams 374 29 Caro 37:12 6:00
4/19/2014 1:19pm

Female Overall
Place Oallplace Name No. Age City Time Pace
1 2 Lisa Loetzner 283 49 Clarkston 43:38 7:02
4/19/2014 1:19pm

Male Age Group: 1-13
Place Oallplace Name No. Age City Time Pace

Female Age Group: 1-13
Place Oallplace Name No. Age City Time Pace
1 59 Jacquelyn Compton 187 13 Holly 1:00:22 9:43

Male Age Group: 14-19
Place Oallplace Name No. Age City Time Pace

Female Age Group: 14-1
Place Oallplace Name No. Age City Time Pace
1 20 Trella Garcia 86 15 Wheatley 50:45 8:10

Male Age Group: 20-29
Place Oallplace Name No. Age City Time Pace
1 27 Fidel Gonzalez 243 29 Clarkston 52:14 8:25

Female Age Group: 20-2
Place Oallplace Name No. Age City Time Pace
1 33 Bobbie Shenberger 217 23 Leesville 53:21 8:35
2 38 Megan Sokol 103 29 Hancock 54:54 8:50
3 48 Mark Lindsey 208 20 Clarkston 58:27 9:25
4 52 Meghan Bonk 385 26 Clarkston 59:09 9:32
5 53 Katie Smith 375 23 Clarkston 59:12 9:32
6 54 Kailah Happ 376 23 Waterford 59:13 9:32
7 56 Stacy Ledford 100 22 Davisburg 59:52 9:38
8 60 Sarah Grewe 118 29 Saint Clair 1:00:23 9:43
9 61 Emily Gonzalez 242 29 Clarkston 1:00:23 9:44

Male Age Group: 30-39
Place Oallplace Name No. Age City Time Pace
1 8 Andrew Behnke 178 37 Linden 47:24 7:38
2 11 Alejandro Sanchez 45 30 Brighton 47:55 7:43
3 17 James Peters 175 37 Davison 49:59 8:03
4 19 Dan Wilson 160 34 Lake Orion 50:44 8:10
5 44 Jim Strand 382 33 Rochester 56:35 9:07
6 45 Kyle Stephens 154 33 Warren 56:53 9:10

Female Age Group: 30-3
Place Oallplace Name No. Age City Time Pace
1 5 Nina Brown 298 33 Clarkston 45:34 7:20
2 6 Kate Sliwa 142 30 Clarkston 46:35 7:30
3 9 Angela Gerke 195 31 Clarkston 47:28 7:39
4 13 Sarah Zeemer 152 34 Clarkston 49:18 7:56
5 25 Alayna Groszko 384 39 Bloomfield Hill 51:50 8:21
6 28 Heather Martin 113 37 Waterford 52:37 8:28
7 32 Kimberly Peters 174 34 Davison 53:03 8:33
8 34 Jennifer Richter 326 31 Clarkston 53:38 8:38
9 39 Cori Oliver 388 37 Lake Orion 55:21 8:55
10 51 Shelly Battershell 371 39 Lake Orion 58:58 9:30
11 55 Nichole Sontag 199 35 Davison 59:43 9:37
12 58 Julie Galbraith 169 34 Clarkston 1:00:18 9:43
13 62 Jessica Heslip 236 31 Ortonville 1:00:50 9:48
14 64 Jehn Crumbley 170 36 Lake Orion 1:01:33 9:55
15 66 Chris Cooper 275 38 Clarkston 1:01:55 9:58
16 69 Allison Metz 267 39 Fenton 1:03:06 10:10
17 73 Dawn Milmine 366 39 Clarkston 1:04:16 10:21
18 80 Rachel Rhodes 393 35 Goodrich 1:06:22 10:41
19 83 Deanna Hutsell 276 35 Waterford 1:08:13 10:59

Male Age Group: 40-49
Place Oallplace Name No. Age City Time Pace
1 10 Brett Battishill 214 42 Clarkston 47:35 7:40
2 16 Sven Girschner 11 49 Clarkston 49:52 8:02
3 26 Jp Leet 190 41 Midland 51:54 8:21
4 30 Brad Cassiday 346 48 East Lansing 52:52 8:31
5 37 David Valade 176 41 Clinton Townshi 54:39 8:48
6 50 Russell Mccoy 66 49 Franklin 58:33 9:26
7 57 Mark Galbraith 87 40 Clarkston 1:00:18 9:43

Female Age Group: 40-4
Place Oallplace Name No. Age City Time Pace
1 3 Kimberly Ward 351 42 Waterford 44:52 7:14
2 12 Sherri Zimmerman 314 47 Clarkston 48:08 7:45
3 23 Katie Fries 241 44 Clarkston 51:31 8:18
4 24 Evonne Mcgivern 109 43 Clarkston 51:31 8:18
5 29 Denise Dashner 67 44 Temperance 52:47 8:30
6 31 Linda Cassiday 99 46 East Lansing 52:55 8:31
7 40 Andrea Kidder 55 41 White Lake 56:27 9:05
8 41 Heidi Stout 54 41 Clarkston 56:27 9:06
9 42 Keri Taverna 56 42 Clarkston 56:27 9:06
10 43 Kimberlee Elliott 198 41 Clarkston 56:28 9:06
11 63 Marcie Lemieux 244 42 Clarkston 1:01:20 9:53
12 65 Lisa Byrne 392 45 Goodrich 1:01:34 9:55
13 67 Julie Scherler 189 41 Clarkston 1:02:29 10:04
14 68 Mary Sheena 33 48 Keego Harbor 1:02:32 10:04
15 70 Amy Converse 262 41 Fenton 1:03:06 10:10
16 72 Joda Krupp 161 48 Troy 1:04:13 10:20
17 74 Teresa Bigelow 12 48 Clarkston 1:04:38 10:25
18 78 Jennie Griffith 94 44 Auburn Hills 1:05:54 10:37
19 79 Kelly Coe 379 43 Royal Oak 1:06:12 10:40
20 81 Dana Mayin 110 47 Lapeer 1:07:52 10:56
21 82 Connie Schmidt 111 45 Clarkston 1:07:52 10:56

Male Age Group: 50-59
Place Oallplace Name No. Age City Time Pace
1 4 Rick Clark 37 59 Clarkston 44:53 7:14
2 15 David Wilder 85 50 Clarkston 49:45 8:01
3 21 Ken Hartwig 380 54 Ortonville 51:03 8:13
4 22 Domingo Valadez 148 54 Temperance 51:10 8:14
5 36 Scott Vanderveen 349 57 Clarkston 54:39 8:48
6 49 Creech Tom 334 58 Clarkston 58:27 9:25
7 71 Kevin Dailey 79 54 Troy 1:04:13 10:20
8 76 Kenneth Sheperd 120 51 Oxford 1:05:50 10:36
9 84 Thomas Bienkowski 150 57 Clarkston 1:08:40 11:03
10 90 Richard Matkin 203 53 Hazel Park 1:15:41 12:11

Female Age Group: 50-5
Place Oallplace Name No. Age City Time Pace
1 46 Abigail Hotchkiss 38 51 Ortonville 57:12 9:13
2 47 Amy Kurrle 312 56 Clarkston 58:15 9:23
3 75 Sandra Steinke 18 56 Clarkston 1:04:46 10:26
4 77 Angela Sheperd 119 51 Oxford 1:05:51 10:36
5 85 Shari Matkin 202 52 Hazel Park 1:09:21 11:10
6 88 Kimberly Mcbride 41 50 Metamora 1:12:33 11:41
7 89 Cheryl Koch 4 58 Goodrich 1:15:40 12:11

Male Age Group: 60-69
Place Oallplace Name No. Age City Time Pace
1 14 Ken Rowe 330 67 Southgate 49:22 7:57
2 18 Rick Holman 305 60 Clarkston 50:19 8:06
3 35 Bruce Freeburger 378 62 Roseville 53:57 8:41

Female Age Group: 60-6
Place Oallplace Name No. Age City Time Pace
1 7 Donna Olson 329 64 Southgate 46:44 7:32
2 86 Ann Chlebnik 2 60 Goodrich 1:09:56 11:16
3 87 Jane Matthews 98 68 Grand Blanc 1:10:30 11:21

Male Age Group: 70-99
Place Oallplace Name No. Age City Time Pace

Female Age Group: 70-9
Place Oallplace Name No. Age City Time Pace







APRIL FOOL'S RUN
Saturday, April 19, 2014
Clarkston, Michigan
Results by Race Services Company

5k Run Results

Male Overall
Place Oallplace Name No. Age City Time Pace
1 1 Thomas Preiss 327 45 Waterford 17:13 5:33
4/19/2014 1:26pm

Female Overall
Place Oallplace Name No. Age City Time Pace
1 5 Caryn Maxwell 369 45 Rochester 20:10 6:30
4/19/2014 1:26pm

Male Age Group: 1-13
Place Oallplace Name No. Age City Time Pace
1 107 Isaac Pratt 48 10 Waterford 31:54 10:16
2 141 Jacob Boisvert 123 9 Clarkston 35:57 11:34
3 189 John Bartos 400 8 Waterford 46:38 15:01

Female Age Group: 1-13
Place Oallplace Name No. Age City Time Pace
1 114 Brooke Larkin 62 11 Clarkston 32:19 10:25
2 115 Mckenna Larkin 63 13 Clarkston 32:20 10:25
3 153 Alexandria Forbes 71 13 Clarkston 37:47 12:10
4 167 Aubrey Gibbs 231 10 Waterford 39:53 12:50
5 170 Megan Zabinski 172 11 Clarkston 40:04 12:54
6 172 Ashley Gibbs 232 10 Waterford 40:41 13:06
7 183 Emily Winkler 285 12 Macomb 45:17 14:35

Male Age Group: 14-19
Place Oallplace Name No. Age City Time Pace
1 2 Derek Opel 304 16 Clarkston 19:04 6:09
2 7 Alexander Aluxek 65 18 Clarkston 20:42 6:40
3 10 Kurt Bedra 153 14 Lake Orion 21:29 6:55
4 11 Ryan Mcavoy 255 15 Clarkston 21:35 6:57
5 21 Jordan Mcnaughton 360 15 Davison 22:48 7:21
6 34 Trenton Sabo 6 14 Oxford 24:26 7:52
7 180 Brad Bedra 182 16 Lake Orion 42:14 13:36

Female Age Group: 14-1
Place Oallplace Name No. Age City Time Pace
1 17 Morgan Martin 137 18 Clarkston 22:29 7:15
2 64 Madeline Farmer 280 18 Waterford 27:31 8:52

Male Age Group: 20-29
Place Oallplace Name No. Age City Time Pace
1 16 Adam Dryke 130 29 Lake Orion 22:27 7:14
2 19 Joshua Herrara 106 22 Clarkston 22:39 7:18
3 23 Kyle Jackson 381 26 Ortonville 23:34 7:35
4 27 Truman Jones 196 21 Metamora 23:59 7:43
5 36 Phillip Starski 274 23 Clarkston 24:49 8:00
6 41 Chris Warden 155 29 Holly 25:15 8:08
7 62 Kurt Cooper 140 29 Clarkston 27:22 8:49
8 84 Joseph Dewey 58 27 Auburn Hills 29:26 9:29
9 86 James Mathews 213 25 Clarkston 30:12 9:44
10 111 Adam Johnson 93 26 Clarkston 32:15 10:23
11 136 Andrew Horning 297 25 Ortonville 35:32 11:27

Female Age Group: 20-2
Place Oallplace Name No. Age City Time Pace
1 15 Kate Dolata 183 29 Holly 22:26 7:14
2 18 Cassie Williams 373 28 Caro 22:32 7:15
3 25 Kelly Parmerlee 131 26 Lake Orion 23:50 7:41
4 26 Cari Steinman 343 24 Clarkston 23:50 7:41
5 30 Brienne Metcalf 163 28 Walled Lake 24:10 7:47
6 43 April Linenger 31 28 Ortonville 25:22 8:10
7 46 Terra Koehler 261 28 Clarkston 25:38 8:15
8 50 Jenna Hobson 15 24 Linden 25:53 8:20
9 57 Mckenzie Rea 167 21 Metamora 26:37 8:34
10 59 Callie Colbert 105 21 Clarkston 27:13 8:46
11 65 Lauren Lacoursiere 35 20 New Baltimore 27:31 8:52
12 68 Courtnie Sinclair-Bake 245 27 Clarkston 27:48 8:57
13 77 Caitlyn Broughton 291 24 Clarkston 29:00 9:20
14 83 Amber Lord 14 24 White Lake 29:23 9:28
15 103 Ashten Armstrong 141 27 Owosso 31:25 10:07
16 112 Bethany Reid 396 29 Holly 32:17 10:24
17 113 Jennifer Longbucco 395 26 Clarkston 32:17 10:24
18 123 Maggie Leahy 288 27 Plymouth 33:41 10:51
19 127 Amanda Nichols Hess 49 27 Clarkston 33:54 10:55
20 130 Whitney Reppuhn 391 27 Sterling Height 34:33 11:08
21 135 Heidi Emery 296 26 Ortonville 35:17 11:22
22 152 Liz Abrams 251 27 Clarkston 37:29 12:04
23 161 Emma Schulte 238 24 Clarkston 39:26 12:42
24 164 Melissa Freitag 325 26 Holly 39:35 12:45

Male Age Group: 30-39
Place Oallplace Name No. Age City Time Pace
1 3 Joseph Rukstelo 365 32 White Lake 19:49 6:23
2 6 Justin Cannon 129 35 Clarkston 20:12 6:30
3 8 Michael Tobin 181 33 Highland 21:02 6:47
4 22 Jim Kerr 166 38 New Baltimore 23:11 7:28
5 24 Phil Metcalf 81 33 Walled Lake 23:38 7:37
6 31 Michael Remley 339 39 Clarkston 24:18 7:50
7 35 Matthew Berg 233 35 Waterford 24:26 7:52
8 39 Mike Collins 249 35 Clarkston 25:10 8:06
9 42 Timothy Whiting 387 33 Utica 25:17 8:09
10 49 Timothy King 216 33 Madison Heights 25:51 8:20
11 51 Brian Webb 320 36 Clarkston 26:12 8:26
12 56 Jeff Plaskon 309 36 Utica 26:34 8:33
13 76 Eric Keppen 321 32 Waterford 28:30 9:11
14 79 Jimmmmmm Vassallooooo 341 39 Clarkston 29:07 9:23
15 85 Mike Otto 188 33 Clarkston 29:48 9:36
16 128 Kyle Lobes 352 38 Rochester 33:57 10:56
17 142 Steve Boisvert 122 37 Clarkston 35:57 11:35
18 145 Matt Kay 114 36 Clarkston 36:32 11:46
19 146 Jon Jury 104 32 Novi 36:46 11:50
20 157 Jeff Hix 246 31 Clarkston 38:27 12:23
21 190 Todd Bartos 399 35 Waterford 48:48 15:43

Female Age Group: 30-3
Place Oallplace Name No. Age City Time Pace
1 9 Farra Rust 168 36 Waterford 21:24 6:53
2 13 Andrea Sage 200 39 Clarkston 22:13 7:09
3 28 Jill Norris 30 36 Ortonville 24:08 7:46
4 52 Kristy Murphy 308 33 Clarkston 26:13 8:27
5 58 Maria Freeman 173 34 Davison 26:43 8:36
6 67 Stephanie Gondek 338 36 White Lake 27:46 8:57
7 69 Erin Atkins 377 36 Holly 27:54 8:59
8 70 Beth Tardiff 52 36 White Lake 27:57 9:00
9 71 Jamie Dietlin 156 34 Clarkston 28:15 9:06
10 73 Traci Wright 116 35 Brighton 28:22 9:08
11 74 Stephanie Jenkins 127 31 Oxford 28:27 9:10
12 78 Nikki Vassallo 340 38 Clarkston 29:07 9:23
13 87 Kristy Ruffing 358 30 Madison Heights 30:25 9:48
14 88 Karen Delbeke 397 32 Clarkston 30:25 9:48
15 89 Teresa Cardinell 17 38 Clarkston 30:27 9:48
16 90 Michelle Morgan 253 38 Ortonville 30:30 9:49
17 94 Kristina Mularczyk 221 39 Lake Orion 30:41 9:53
18 95 Kelly King 248 31 Philadelphia 30:50 9:56
19 100 Carrie Herron 128 33 Royal Oak 31:02 10:00
20 108 Liz Schulze 134 39 Fenton 31:54 10:16
21 117 Heather King 215 31 Madison Heights 32:44 10:33
22 122 Jill Leider 34 36 Clarkston 33:35 10:49
23 126 Michele Hodge 23 39 Waterford 33:43 10:52
24 129 April Pratt 47 36 Waterford 34:07 10:59
25 132 Brandi O'berry 126 34 Clarkston 34:35 11:08
26 140 Trisha Waring 372 33 New Baltimore 35:51 11:33
27 143 Dawn Boisvert 124 36 Clarkston 36:00 11:36
28 149 Shannon Lambert 157 33 Royal Oak 37:07 11:57
29 150 Cortney Duffy 295 33 Clarkston 37:16 12:00
30 151 Lisa Paramo 294 35 Clarkston 37:16 12:00
31 154 Lisa Butcher 46 39 Waterford 37:57 12:13
32 155 Theresa Powerski 383 33 Goodrich 38:02 12:15
33 156 Kendra Kelly 89 30 Holly 38:02 12:15
34 160 Kim Kulaga 27 39 Ortonville 39:21 12:40
35 162 Anne Sauerbier 240 33 Auburn Hills 39:32 12:44
36 163 Kristin Pace 219 36 Clarkston 39:35 12:45
37 169 Lorna Klein 88 38 Flint 39:53 12:51
38 173 Erin Menko 36 36 Rochester 40:52 13:09
39 176 Nicole Stoyanoff 53 38 Clarkston 41:10 13:15
40 178 Tamra Wright 115 36 Brighton 41:47 13:27
41 181 Amanda Hotchkiss 39 31 Goodrich 42:54 13:49
42 182 Kara Sokol 102 36 Hancock 45:12 14:33
43 188 Ann Bartus 398 38 Waterford 46:38 15:01
44 191 Glory Forbes 180 37 Clarkston 48:51 15:44
45 193 Stacy Kent 162 32 Davison 50:47 16:21
46 194 Rochelle Montney 193 32 Ortonville 50:48 16:21
47 197 Adriana Arzamendi 43 30 Brighton 1:04:07 20:39

Male Age Group: 40-49
Place Oallplace Name No. Age City Time Pace
1 4 Patrick Fogo 149 43 Troy 20:05 6:28
2 20 Rusty Robinson 228 45 Waterford 22:45 7:20
3 44 Mike O'connor 331 43 Waterford 25:29 8:13
4 48 Shane Moon 192 41 Clarkston 25:49 8:19
5 63 Carmi Edwards 77 46 Walled Lake 27:26 8:50
6 91 Dustin Miller 75 42 Brighton 30:33 9:50
7 97 Greg Middleton 370 41 Clarkston 30:58 9:58
8 99 Stuart Forbes 70 42 Clarkston 30:59 9:59
9 110 Dave Larkin 64 44 Clarkston 32:02 10:19
10 137 Brian Sabo 5 49 Oxford 35:42 11:30

Female Age Group: 40-4
Place Oallplace Name No. Age City Time Pace
1 33 Shirley Kolakovich 90 43 White Lake 24:22 7:51
2 47 Shawn London 32 40 Clarkston 25:47 8:18
3 53 Jennifer Tews 306 45 Ortonville 26:13 8:27
4 54 Shannon Flynn Larkin 61 43 Clarkston 26:14 8:27
5 61 Shelley Chinn 7 45 Bloomfield Hill 27:22 8:49
6 66 Karen Kesegich 97 48 Lake Orion 27:32 8:52
7 72 Kathy Edwards 158 45 Walled Lake 28:16 9:06
8 75 Robyn Reppuhn 310 49 Clarkston 28:29 9:10
9 80 Lee Rea 84 45 North Branch 29:09 9:23
10 81 Kim Hentkowski 293 43 Clarkston 29:14 9:25
11 82 Kristin Cesarek 51 45 Lake Orion 29:22 9:27
12 93 Sabine Franke 191 45 Rochester 30:39 9:52
13 98 Allyson Hemsworth 347 43 Clarkston 30:58 9:58
14 104 Stephanie Mcpeak 194 40 Troy 31:28 10:08
15 106 Alice Bosley 144 41 Clarkston 31:52 10:16
16 116 Barbara Chick 313 42 Clarkston 32:21 10:25
17 119 Tracy Brooks 60 41 Waterford 33:18 10:43
18 120 Chaundra Wilson 133 41 Grand Blanc 33:22 10:45
19 121 Lori Highlen 132 42 Clarkston 33:22 10:45
20 124 Gina Mirjah 289 44 Clarkston 33:42 10:51
21 125 Beth Felix 287 43 Clarkston 33:42 10:51
22 131 Mary Martin 254 41 Clarkston 34:35 11:08
23 133 Erica Packard 96 40 Oxford 34:37 11:09
24 138 Amy Sabo 112 42 Oxford 35:44 11:30
25 139 Colleen Ramsey 186 40 Holly 35:50 11:32
26 144 Kari Woodmancy 201 43 Holly 36:07 11:38
27 147 Sara Hazen 229 46 Waterford 36:54 11:53
28 148 Kotsonas Ginni 328 48 Highland 37:07 11:57
29 158 Kim Janick 78 49 Clinton Townshi 38:56 12:32
30 165 Sandra Walter 218 40 Waterford 39:35 12:45
31 166 Amelia Miller 76 41 Brighton 39:37 12:45
32 171 Teresa Ramsey 368 49 Clarkston 40:18 12:59
33 174 Cynthia Whiteman 212 49 Clarkston 41:04 13:14
34 175 Lisa Steward 258 42 Waterford 41:09 13:15
35 177 Dianna Zabinski 171 45 Clarkston 41:47 13:27
36 179 Misti Friend 50 42 Ortonville 41:51 13:28
37 184 Kimberly Winkler 284 44 Macomb 45:21 14:36
38 185 Cindy Brown 101 43 Rochester 45:45 14:44
39 195 Rochelle Kalinowski 226 46 Flushing 58:34 18:51
40 196 Kari Mcavoy 257 43 Clarkston 58:58 18:59

Male Age Group: 50-59
Place Oallplace Name No. Age City Time Pace
1 29 Carl Davis 184 55 Rochester 24:10 7:47
2 37 Steve Fletcher 332 52 Clarkston 25:00 8:03
3 45 Kevin Thomas 345 55 Lake Orion 25:35 8:14
4 60 Brian Safford 209 57 Northville 27:18 8:48
5 109 Patrick O'connor 386 53 Birmingham 31:54 10:16

Female Age Group: 50-5
Place Oallplace Name No. Age City Time Pace
1 14 Patti Braunreuther 290 55 Clarkston 22:13 7:10
2 32 Lola Tan 333 51 Clarkston 24:19 7:50
3 38 Carolyn Brill 8 51 Clarkston 25:09 8:06
4 40 Lisa Hosner 143 53 Clarkston 25:14 8:08
5 96 Ann Gregg 206 52 Clarkston 30:54 9:57
6 102 Renea Morgan 342 52 Royal Oak 31:18 10:05
7 105 Ragen Beadle 367 54 Washington 31:48 10:15
8 134 Sue Emerick 344 54 Lake Orion 34:37 11:09
9 168 Laura Chase 197 50 Clarkston 39:53 12:51
10 186 Diane Hall 230 52 Waterford 46:01 14:49
11 187 Debbie Armstrong 159 50 Roseville 46:36 15:00
12 192 Jan O'sullivan 205 56 Clarkston 50:44 16:20
13 198 Aida Petriz 44 51 Brighton 1:04:09 20:39

Male Age Group: 60-69
Place Oallplace Name No. Age City Time Pace
1 101 Mike Baker 247 61 Clarkston 31:18 10:05

Female Age Group: 60-6
Place Oallplace Name No. Age City Time Pace
1 92 Joyce Pennycoff 292 62 Clarkston 30:37 9:52
2 118 Ruth Verran 95 62 Oakland 33:16 10:43

Male Age Group: 70-99
Place Oallplace Name No. Age City Time Pace
1 12 James Carlton 319 71 White Lake 22:01 7:06
2 55 Robert Penilo 390 70 Clarkston 26:21 8:29
3 159 Harrison Hensley 363 81 Pinckney 39:11 12:37

Female Age Group: 70-9
Place Oallplace Name No. Age City Time Pace






APRIL FOOL'S RUN
Saturday, April 19, 2014
Clarkston, Michigan
Results by Race Services Company

5k Walk Results

Male Overall Winner
Place Oallplace Name No. Age City Time Pace
1 1 Michael Cushnier 68 66 Rochester 30:45 9:54
4/19/2014 1:26pm

Female Overall Winner
Place Oallplace Name No. Age City Time Pace
1 3 Patricia Vitasinski 59 57 Waterford 35:33 11:27
4/19/2014 1:26pm

Male Age Group: 1-13
Place Oallplace Name No. Age City Time Pace
1 44 Laws Jack 315 12 Waterford 50:01 16:06
2 54 Harrison Keppen 324 5 Waterford 53:27 17:12

Female Age Group: 1-13
Place Oallplace Name No. Age City Time Pace
1 11 Emily Gajewski 277 13 Franklin 41:37 13:24
2 30 Devon Miller 10 11 Ortonville 47:11 15:12
3 31 Danielle Miller 13 8 Ortonville 47:12 15:12
4 47 Jordyn Mcnaught 362 8 Waterford 50:44 16:20
5 63 Kaileigh Kapellas 224 12 Grand Blanc 56:32 18:12

Male Age Group: 14-19
Place Oallplace Name No. Age City Time Pace
1 19 Laws Alexander 316 14 Waterford 42:58 13:50

Female Age Group: 14-1
Place Oallplace Name No. Age City Time Pace

Male Age Group: 20-29
Place Oallplace Name No. Age City Time Pace

Female Age Group: 20-2
Place Oallplace Name No. Age City Time Pace
1 5 Tracy Feeman 237 23 White Lake 39:30 12:43
2 46 Brianne Frankini 361 27 Waterford 50:43 16:20
3 74 Samantha Bognar 164 21 Wixom 58:34 18:51

Male Age Group: 30-39
Place Oallplace Name No. Age City Time Pace
1 48 Christopher Reicha 252 38 Walled Lake 50:46 16:21
2 64 Zach Gossett 311 33 Clarkston 56:34 18:13

Female Age Group: 30-3
Place Oallplace Name No. Age City Time Pace
1 32 Lauri Hine 28 39 Ortonville 47:23 15:15
2 33 Erica Stachowiak 318 35 Clarkston 47:23 15:15
3 49 Donna Reicha 250 33 Walled Lake 50:48 16:21
4 51 Gina Lobes 353 38 Rochester 51:47 16:40
5 52 Chrissy White 210 34 Waterford 52:53 17:02
6 55 Adriane Keppen 323 35 Waterford 53:29 17:13
7 66 Robin Kalinowski 225 35 Clarkston 56:35 18:13

Male Age Group: 40-49
Place Oallplace Name No. Age City Time Pace
1 7 Tim Sample 177 41 Brown City 39:52 12:50

Female Age Group: 40-4
Place Oallplace Name No. Age City Time Pace
1 6 Kelly Feeman 239 48 White Lake 39:36 12:45
2 12 Sherry Juuhl 307 43 Clarkston 41:50 13:28
3 18 Caron Solecki 301 46 New Baltimore 42:53 13:48
4 22 Claudia Gajewski 278 48 Franklin 44:19 14:16
5 27 Andrea Larson 1 43 Ortonville 46:04 14:50
6 39 Barbara Swan 235 47 Waterford 48:47 15:42
7 41 De' Angela Worrell 145 47 Davison 49:16 15:52
8 43 Vicki Roy 279 48 Clarkston 49:59 16:06
9 45 Laws Donna 317 48 Waterford 50:03 16:07
10 53 Arlene Ward 211 47 Ortonville 52:53 17:02
11 56 Alicia Nott 259 49 Waterford 53:29 17:13
12 57 Melanie Lizotte 260 40 Waterford 53:29 17:13
13 58 Brenda Mclouth 282 40 Davisburg 53:42 17:17
14 65 Raquel Marcou 222 41 Fenton 56:35 18:13
15 69 Tonya Wilder 337 49 Clarkston 56:49 18:18

Male Age Group: 50-59
Place Oallplace Name No. Age City Time Pace
1 42 Kevin Roy 281 55 Clarkston 49:59 16:06
2 60 Mike Kokowicz 25 51 Clarkston 54:19 17:29
3 61 Robert Biskup 335 50 Waterford 54:40 17:36
4 68 James Kapellas 223 51 Grand Blanc 56:38 18:14

Female Age Group: 50-5
Place Oallplace Name No. Age City Time Pace
1 13 Beverly Lekse 20 58 Clarkston 41:56 13:30
2 15 Maureen Moultrup 19 55 Clarkston 42:08 13:34
3 17 Patty Steele 302 51 New Baltimore 42:53 13:48
4 23 Krissa Mick 135 55 Clarkston 44:34 14:21
5 24 Lori Hall 16 55 Clarkston 44:34 14:21
6 25 Denise Casper 42 55 Clarkston 44:35 14:21
7 28 Bethany Martin 136 50 Clarkston 46:12 14:52
8 36 Beverly Alleman 24 50 Waterford 48:40 15:40
9 37 Janet Hughes 204 56 Clarkston 48:40 15:40
10 38 Gwen Batoha 26 50 Lake Orion 48:41 15:40
11 40 Tanya Freeman 234 56 Waterford 48:48 15:43
12 50 Nadine Herron 29 59 Clarkston 51:16 16:30
13 59 Joan Sharpley 57 55 Auburn Hills 54:19 17:29
14 62 Krystana Biskup 336 50 Waterford 54:42 17:37
15 71 Lisa Hieber 270 50 Clarkston 58:10 18:44
16 73 Anita Charochak 82 58 Wixom 58:34 18:51

Male Age Group: 60-69
Place Oallplace Name No. Age City Time Pace
1 4 Stephen Welch 348 64 Grand Blanc 38:21 12:21
2 8 Doug Metzger 72 60 West Bloomfield 40:09 12:56
3 14 David Sokol 389 62 Hancock 42:00 13:32
4 21 Dave Allyn 350 65 Clarkston 43:21 13:58
5 26 Bob Chlebnik 3 66 Goodrich 44:54 14:28
6 72 David Hieber 273 61 Clarkston 58:11 18:44

Female Age Group: 60-6
Place Oallplace Name No. Age City Time Pace
1 9 Lynne Hufnagle 151 61 West Bloomfield 40:10 12:56
2 10 Ruth Cushnier 179 66 Rochester 40:53 13:10
3 16 Denise Buckner 303 60 New Baltimore 42:52 13:48
4 20 Marilyn Allyn 354 63 Clarkston 43:20 13:57
5 34 Sharon Miller 9 64 Ortonville 47:36 15:19

Male Age Group: 70-99
Place Oallplace Name No. Age City Time Pace
1 2 Marv Larson 364 77 Rochester 32:10 10:22

Female Age Group: 70-9
Place Oallplace Name No. Age City Time Pace
1 67 Rose Kalinowski 227 71 Holly 56:36 18:13
2 70 Zela Griffith 256 72 Clarkston 56:58 18:20





APRIL FOOL'S RUN
Saturday, April 19, 2014
Clarkston, Michigan
Results by Race Services Company

1 Mile Run Results

Male Overall
Place Name No. Age City Mile
1 Alex Williams 374 29 Caro 6:24
4/19/2014 9:57am

Female Overall
Place Name No. Age City Mile
1 Mackenzie Montagano 108 10 Clarkston 7:30
4/19/2014 9:57am

Male Age Group: 1-5
Place Name No. Age City Mile

Female Age Group: 1-5
Place Name No. Age City Mile
1 Hannah Converse 263 4 Fenton 12:53
2 Reilly Richardson 146 5 Clarkston 17:17

Male Age Group: 6-8
Place Name No. Age City Mile
1 Nolan Pratt 300 7 Waterford 10:43

Female Age Group: 6-8
Place Name No. Age City Mile
1 Ayla Keppen 322 8 Waterford 10:32
2 Jordyn Mcnaught 362 8 Waterford 12:46
3 Mya Brown 299 8 Clarkston 13:14
4 Camryn Boisvert 125 6 Clarkston 13:21

Male Age Group: 9-11
Place Name No. Age City Mile
1 Arden Forbes 69 9 Clarkston 8:05
2 Kaden Dietlin 185 9 Clarkston 8:51

Female Age Group: 9-11
Place Name No. Age City Mile
1 Hailey Kitchen 73 10 Clarkston 11:42
2 Kayla Converse 265 9 Fenton 12:57

Male Age Group: 12-14
Place Name No. Age City Mile

Female Age Group: 12-1
Place Name No. Age City Mile

Male Age Group: 15-17
Place Name No. Age City Mile

Female Age Group: 15-1
Place Name No. Age City Mile

Male Age Group: 18-99
Place Name No. Age City Mile
1 Domingo Valadez 148 54 Temperance 9:22
2 Dan Kitchen 74 36 Clarkston 11:42
3 Steve Boisvert 122 37 Clarkston 13:22

Female Age Group: 18-9
Place Name No. Age City Mile
1 Lola Tan 333 51 Clarkston 8:10
2 Denise Dashner 67 44 Temperance 8:27
3 Heather Montagano 107 48 Clarkston 9:25
4 Sandra Steinke 18 56 Clarkston 10:43
5 Bethany Hillstrom 83 29 Clarkston 12:05
6 Ada Zilka 165 37 Clarkston 12:05
7 Brianne Frankini 361 27 Waterford 12:46
8 Melinda Farquharson 266 39 Fenton 12:47
9 Becky Nelson 220 52 Holly 13:07
10 Chelsea Richardson 147 27 Clarkston 17:19


Clarkston, MI
Provided by Race Services